logo
Rechercher aéroport 
image banner adimage banner adimage banner ad
image banner ad

48VT - Cub Cove

Situé à Colchester, United States

ICAO - 48VT, IATA -

Données fournies par Airmate  

Information générale

Coordonnées: N44°33'13" W73°13'53"
Élévation : 95 feet MSL.
 
Voir autres Aéroports à Vermont

Données opérationnelles

Special qualification required
Heure actuelle UTC:
Heure actuelle locale:
METAR: KBTV 171954Z 19011KT 10SM FEW060 SCT250 29/17 A3001 RMK AO2 SLP161 T02940172
TAF: KBTV 171720Z 1718/1818 19010KT P6SM SCT070 FM172300 17005KT P6SM FEW060 FM181100 18007KT P6SM SCT200
Voir NOTAMs / SUP AIP / TFR affectant cet aéroport [VIEW]
Fréquences de communication: [VIEW]

Pistes:

Identifiant RWYQFULongueur (ft)Largeur (ft)SurfaceLDA (ft)
05W4000300WATER
23W4000300WATER

Coordonnées de l'aéroport

Adresse: Colchester United States

Vue satellite de 48VT